createdAt,value
2023-03-06T00:00:01.252Z,28.90
2023-03-06T00:04:01.404Z,28.91
2023-03-06T00:08:01.399Z,28.90
2023-03-06T00:12:01.541Z,28.92
2023-03-06T00:16:01.592Z,28.95
2023-03-06T00:20:01.639Z,28.95
2023-03-06T00:24:01.702Z,28.93
2023-03-06T00:28:01.785Z,28.94
2023-03-06T00:32:01.954Z,28.94
2023-03-06T00:36:01.959Z,28.96
2023-03-06T00:40:02.072Z,28.96
2023-03-06T00:44:02.174Z,28.93
2023-03-06T00:48:02.297Z,28.96
2023-03-06T00:52:02.453Z,28.97
2023-03-06T00:56:02.508Z,28.98
2023-03-06T01:00:02.617Z,28.97
2023-03-06T01:04:02.748Z,28.97
2023-03-06T01:08:02.914Z,28.98
2023-03-06T01:12:02.949Z,28.99
2023-03-06T01:16:03.113Z,29.00
2023-03-06T01:20:03.188Z,29.00
2023-03-06T01:24:03.311Z,28.98
2023-03-06T01:28:03.361Z,28.98
2023-03-06T01:32:03.648Z,29.02
2023-03-06T01:36:03.583Z,29.02
2023-03-06T01:40:03.713Z,29.03
2023-03-06T01:44:03.848Z,29.03
2023-03-06T01:48:03.911Z,29.02
2023-03-06T01:52:04.097Z,29.03
2023-03-06T01:56:04.196Z,29.02
2023-03-06T02:00:04.366Z,29.03
2023-03-06T02:04:04.528Z,29.02
2023-03-06T02:08:04.588Z,29.03
2023-03-06T02:12:04.690Z,29.05
2023-03-06T02:16:04.844Z,29.03
2023-03-06T02:20:04.986Z,29.02
2023-03-06T02:24:05.143Z,29.05
2023-03-06T02:28:05.280Z,29.06
2023-03-06T02:32:05.450Z,29.07
2023-03-06T02:36:05.593Z,29.08
2023-03-06T02:40:05.697Z,29.08
2023-03-06T02:44:05.901Z,29.06
2023-03-06T02:48:06.038Z,29.08
2023-03-06T02:52:06.157Z,29.07
2023-03-06T02:56:06.364Z,29.10
2023-03-06T03:00:06.519Z,29.09
2023-03-06T03:04:06.784Z,29.09
2023-03-06T03:08:06.677Z,29.11
2023-03-06T03:12:06.679Z,29.11
2023-03-06T03:16:06.645Z,29.13
2023-03-06T03:20:06.563Z,29.11
2023-03-06T03:24:06.514Z,29.12
2023-03-06T03:28:06.491Z,29.11
2023-03-06T03:32:06.525Z,29.13
2023-03-06T03:36:06.420Z,29.13
2023-03-06T03:40:06.441Z,29.13
2023-03-06T03:44:06.441Z,29.14
2023-03-06T03:48:06.376Z,29.14
2023-03-06T03:52:06.353Z,29.15
2023-03-06T03:56:06.319Z,29.18
2023-03-06T04:00:06.309Z,29.16
2023-03-06T04:04:06.264Z,29.16
2023-03-06T04:08:06.200Z,29.16
2023-03-06T04:12:06.189Z,29.18
2023-03-06T04:16:06.211Z,29.18
2023-03-06T04:20:06.128Z,29.17
2023-03-06T04:24:06.096Z,29.19
2023-03-06T04:28:06.031Z,29.18
2023-03-06T04:32:06.243Z,29.17
2023-03-06T04:36:06.173Z,29.23
2023-03-06T04:40:06.106Z,29.23
2023-03-06T04:44:06.106Z,29.21
2023-03-06T04:48:06.045Z,29.24
2023-03-06T04:52:06.040Z,29.24
2023-03-06T04:56:06.006Z,29.24
2023-03-06T05:00:05.998Z,29.23
2023-03-06T05:04:05.926Z,29.24
2023-03-06T05:08:05.893Z,29.24
2023-03-06T05:12:05.868Z,29.06
2023-03-06T05:16:05.862Z,28.97
2023-03-06T05:20:05.984Z,28.90
2023-03-06T05:24:05.940Z,28.84
2023-03-06T05:28:05.923Z,28.69
2023-03-06T05:32:06.005Z,28.61
2023-03-06T05:36:05.875Z,28.62
2023-03-06T05:40:05.778Z,28.76
2023-03-06T05:44:05.831Z,28.80
2023-03-06T05:48:05.739Z,28.83
2023-03-06T05:52:05.877Z,28.89
2023-03-06T05:56:05.832Z,28.89
2023-03-06T06:00:05.824Z,28.96
2023-03-06T06:04:05.741Z,28.93
2023-03-06T06:08:05.737Z,28.93
2023-03-06T06:12:05.698Z,28.74
2023-03-06T06:16:05.712Z,28.70
2023-03-06T06:20:05.624Z,28.70
2023-03-06T06:24:05.581Z,28.63
2023-03-06T06:28:05.537Z,28.60
2023-03-06T06:32:05.579Z,28.55
2023-03-06T06:36:05.863Z,27.66
2023-03-06T06:40:05.491Z,24.94
2023-03-06T06:44:07.875Z,26.23
2023-03-06T06:48:05.429Z,26.40
2023-03-06T06:52:05.400Z,27.98
2023-03-06T06:56:05.291Z,28.46
2023-03-06T07:00:05.310Z,28.91
2023-03-06T07:04:05.275Z,29.39
2023-03-06T07:08:05.190Z,29.74
2023-03-06T07:12:05.199Z,30.03
2023-03-06T07:16:05.248Z,30.05
2023-03-06T07:20:05.094Z,30.33
2023-03-06T07:24:05.074Z,30.45
2023-03-06T07:28:05.201Z,30.67
2023-03-06T07:32:05.030Z,31.08
2023-03-06T07:36:04.946Z,31.05
2023-03-06T07:40:04.935Z,30.95
2023-03-06T07:44:04.859Z,31.24
2023-03-06T07:48:05.662Z,31.28
2023-03-06T07:52:04.804Z,31.49
2023-03-06T07:56:04.781Z,31.80
2023-03-06T08:00:04.740Z,32.04
2023-03-06T08:04:04.969Z,31.98
2023-03-06T08:08:05.104Z,32.22
2023-03-06T08:12:05.208Z,32.40
2023-03-06T08:16:05.434Z,32.21
2023-03-06T08:20:05.382Z,32.27
2023-03-06T08:24:06.740Z,32.07
2023-03-06T08:28:05.329Z,30.55
2023-03-06T08:32:05.377Z,23.74
2023-03-06T08:36:05.476Z,25.00
2023-03-06T08:40:05.692Z,26.74
2023-03-06T08:44:05.668Z,27.59
2023-03-06T08:48:05.588Z,27.80
2023-03-06T08:52:05.590Z,28.09
2023-03-06T08:56:05.514Z,28.27
2023-03-06T09:00:05.505Z,28.43
2023-03-06T09:04:05.462Z,28.52
2023-03-06T09:08:05.450Z,28.80
2023-03-06T09:12:05.388Z,28.99
2023-03-06T09:16:05.379Z,29.15
2023-03-06T09:20:05.343Z,29.33
2023-03-06T09:24:05.263Z,29.59
2023-03-06T09:28:11.315Z,27.20
2023-03-06T09:35:38.593Z,23.64
2023-03-06T09:39:38.558Z,22.93
2023-03-06T09:43:38.533Z,22.81
2023-03-06T09:47:38.154Z,24.34
2023-03-06T09:51:38.641Z,24.79
2023-03-06T09:55:38.103Z,26.39
2023-03-06T09:59:38.050Z,27.25
2023-03-06T10:03:38.016Z,28.04
2023-03-06T10:07:38.013Z,29.02
2023-03-06T10:11:38.038Z,29.51
2023-03-06T10:15:38.590Z,28.82
2023-03-06T10:19:38.070Z,27.48
2023-03-06T10:23:38.023Z,26.00
2023-03-06T10:27:37.959Z,25.76
2023-03-06T10:31:38.065Z,25.04
2023-03-06T10:35:38.112Z,24.13
2023-03-06T10:39:37.898Z,26.20
2023-03-06T10:43:38.050Z,26.72
2023-03-06T10:47:37.819Z,27.40
2023-03-06T10:51:37.772Z,27.75
2023-03-06T10:55:37.746Z,28.20
2023-03-06T10:59:37.682Z,28.71
2023-03-06T11:03:38.057Z,29.26
2023-03-06T11:07:37.613Z,29.57
2023-03-06T11:11:45.282Z,29.88
2023-03-06T11:15:37.647Z,30.17
2023-03-06T11:19:37.549Z,30.47
2023-03-06T11:23:37.616Z,30.80
2023-03-06T11:27:37.638Z,28.65
2023-03-06T11:31:37.475Z,25.95
2023-03-06T11:35:37.411Z,27.87
2023-03-06T11:39:37.355Z,28.27
2023-03-06T11:43:37.600Z,28.69
2023-03-06T11:47:37.264Z,29.05
2023-03-06T11:51:37.249Z,29.41
2023-03-06T11:55:37.198Z,29.73
2023-03-06T11:59:37.195Z,29.42
2023-03-06T12:03:37.111Z,28.86
2023-03-06T12:07:37.094Z,28.42
2023-03-06T12:11:37.070Z,28.59
2023-03-06T12:15:37.631Z,28.78
2023-03-06T12:19:37.229Z,29.13
2023-03-06T12:23:39.101Z,29.41
2023-03-06T12:27:37.323Z,28.53
2023-03-06T12:31:37.473Z,27.67
2023-03-06T12:35:37.551Z,26.11
2023-03-06T12:39:37.716Z,26.07
2023-03-06T12:43:40.059Z,25.70
2023-03-06T12:47:38.068Z,25.15
2023-03-06T12:51:38.289Z,24.76
2023-03-06T12:55:38.415Z,24.17
2023-03-06T12:59:38.735Z,23.83
2023-03-06T13:03:38.900Z,21.65
2023-03-06T13:07:38.961Z,22.02
2023-03-06T13:11:39.057Z,23.06
2023-03-06T13:15:39.090Z,23.37
2023-03-06T13:19:39.057Z,24.16
2023-03-06T13:23:39.267Z,24.74
2023-03-06T13:27:39.466Z,25.17
2023-03-06T13:31:39.576Z,25.54
2023-03-06T13:35:39.916Z,25.86
2023-03-06T13:39:39.871Z,25.97
2023-03-06T13:43:39.795Z,25.89
2023-03-06T13:48:05.776Z,25.53
2023-03-06T13:51:40.757Z,25.59
2023-03-06T13:55:39.731Z,26.00
2023-03-06T13:59:39.654Z,26.33
2023-03-06T14:03:39.674Z,24.54
2023-03-06T14:07:39.579Z,22.76
2023-03-06T14:11:39.735Z,22.84
2023-03-06T14:15:39.649Z,23.71
2023-03-06T14:19:39.606Z,23.70
2023-03-06T14:23:39.612Z,23.71
2023-03-06T14:27:39.560Z,23.46
2023-03-06T14:31:39.539Z,23.36
2023-03-06T14:35:39.520Z,22.81
2023-03-06T14:39:39.456Z,23.26
2023-03-06T14:43:39.659Z,24.31
2023-03-06T14:47:39.689Z,24.97
2023-03-06T14:51:39.314Z,25.00
2023-03-06T14:55:39.348Z,25.11
2023-03-06T14:59:39.278Z,25.12
2023-03-06T15:03:39.388Z,25.23
2023-03-06T15:07:39.321Z,25.23
2023-03-06T15:11:39.655Z,25.30
2023-03-06T15:15:39.277Z,25.31
2023-03-06T15:19:39.222Z,25.35
2023-03-06T15:23:39.188Z,25.36
2023-03-06T15:27:39.158Z,25.43
2023-03-06T15:31:39.236Z,25.53
2023-03-06T15:35:39.065Z,25.54
2023-03-06T15:39:39.088Z,25.55
2023-03-06T15:43:39.266Z,25.63
2023-03-06T15:47:39.188Z,25.68
2023-03-06T15:51:39.188Z,25.71
2023-03-06T15:55:39.155Z,25.80
2023-03-06T15:59:39.137Z,25.80
2023-03-06T16:03:39.067Z,25.91
2023-03-06T16:07:39.056Z,25.95
2023-03-06T16:11:43.923Z,26.03
2023-03-06T16:15:39.966Z,26.04
2023-03-06T16:19:38.958Z,26.08
2023-03-06T16:23:38.879Z,26.13
2023-03-06T16:27:38.865Z,26.08
2023-03-06T16:31:38.842Z,26.15
2023-03-06T16:35:38.826Z,26.17
2023-03-06T16:39:38.794Z,26.11
2023-03-06T16:43:38.696Z,26.19
2023-03-06T16:47:38.684Z,26.32
2023-03-06T16:51:38.709Z,26.31
2023-03-06T16:55:38.637Z,26.29
2023-03-06T16:59:38.655Z,26.28
2023-03-06T17:03:38.653Z,26.26
2023-03-06T17:07:38.607Z,26.33
2023-03-06T17:11:38.651Z,26.43
2023-03-06T17:15:38.552Z,26.44
2023-03-06T17:19:38.490Z,26.45
2023-03-06T17:23:38.580Z,26.45
2023-03-06T17:27:38.669Z,26.50
2023-03-06T17:31:38.844Z,26.46
2023-03-06T17:35:39.048Z,26.47
2023-03-06T17:39:39.141Z,26.51
2023-03-06T17:43:39.336Z,26.44
2023-03-06T17:47:39.464Z,26.43
2023-03-06T17:51:39.622Z,26.42
2023-03-06T17:55:39.811Z,26.39
2023-03-06T17:59:39.980Z,26.40
2023-03-06T18:03:40.170Z,26.40
2023-03-06T18:07:40.366Z,26.45
2023-03-06T18:11:40.530Z,26.41
2023-03-06T18:15:40.783Z,26.39
2023-03-06T18:19:40.945Z,26.40
2023-03-06T18:23:41.176Z,26.42
2023-03-06T18:27:41.367Z,26.39
2023-03-06T18:31:41.717Z,26.39
2023-03-06T18:35:41.585Z,26.41
2023-03-06T18:39:41.551Z,26.41
2023-03-06T18:43:41.472Z,26.36
2023-03-06T18:47:41.451Z,26.38
2023-03-06T18:51:41.776Z,26.33
2023-03-06T18:55:41.364Z,26.31
2023-03-06T18:59:41.308Z,26.22
2023-03-06T19:03:41.315Z,26.29
2023-03-06T19:07:41.237Z,26.29
2023-03-06T19:11:41.367Z,26.32
2023-03-06T19:15:41.276Z,26.31
2023-03-06T19:19:41.235Z,26.33
2023-03-06T19:23:41.192Z,26.34
2023-03-06T19:27:41.159Z,26.38
2023-03-06T19:31:41.156Z,26.31
2023-03-06T19:35:41.204Z,26.38
2023-03-06T19:39:41.045Z,26.36
2023-03-06T19:43:41.079Z,26.40
2023-03-06T19:47:41.010Z,26.41
2023-03-06T19:51:41.107Z,26.38
2023-03-06T19:55:40.946Z,26.40
2023-03-06T19:59:41.023Z,26.40
2023-03-06T20:03:40.874Z,26.42
2023-03-06T20:07:40.833Z,26.46
2023-03-06T20:11:40.769Z,26.48
2023-03-06T20:15:40.831Z,26.53
2023-03-06T20:19:40.746Z,26.57
2023-03-06T20:23:40.725Z,26.59
2023-03-06T20:27:40.769Z,26.62
2023-03-06T20:31:40.674Z,26.67
2023-03-06T20:35:40.718Z,26.68
2023-03-06T20:39:40.683Z,26.68
2023-03-06T20:43:40.686Z,26.69
2023-03-06T20:47:40.679Z,26.69
2023-03-06T20:51:40.642Z,26.71
2023-03-06T20:55:40.653Z,26.71
2023-03-06T20:59:40.661Z,26.71
2023-03-06T21:03:40.690Z,26.70
2023-03-06T21:07:40.761Z,26.72
2023-03-06T21:11:40.786Z,26.70
2023-03-06T21:15:40.818Z,26.70
2023-03-06T21:19:40.831Z,26.69
2023-03-06T21:23:40.866Z,26.70
2023-03-06T21:27:40.894Z,26.70
2023-03-06T21:31:40.975Z,26.71
2023-03-06T21:35:40.963Z,26.71
2023-03-06T21:39:40.986Z,26.70
2023-03-06T21:43:40.999Z,26.71
2023-03-06T21:47:41.122Z,26.71
2023-03-06T21:51:41.131Z,26.71
2023-03-06T21:55:41.204Z,26.69
2023-03-06T21:59:41.388Z,26.71
2023-03-06T22:03:41.413Z,26.72
2023-03-06T22:07:41.434Z,26.72
2023-03-06T22:11:41.556Z,26.72
2023-03-06T22:15:41.595Z,26.70
2023-03-06T22:19:41.655Z,26.72
2023-03-06T22:23:41.754Z,26.73
2023-03-06T22:27:41.813Z,26.70
2023-03-06T22:31:42.102Z,26.70
2023-03-06T22:35:42.037Z,26.72
2023-03-06T22:39:42.044Z,26.71
2023-03-06T22:43:42.112Z,26.72
2023-03-06T22:47:42.222Z,26.73
2023-03-06T22:51:42.353Z,26.75
2023-03-06T22:55:42.397Z,26.74
2023-03-06T22:59:42.502Z,26.72
2023-03-06T23:03:42.570Z,26.74
2023-03-06T23:07:42.672Z,26.72
2023-03-06T23:11:42.730Z,26.73
2023-03-06T23:15:42.836Z,26.74
2023-03-06T23:19:42.892Z,26.73
2023-03-06T23:23:43.380Z,26.73
2023-03-06T23:27:43.128Z,26.73
2023-03-06T23:31:43.194Z,26.73
2023-03-06T23:35:43.259Z,26.73
2023-03-06T23:39:43.352Z,26.72
2023-03-06T23:43:43.449Z,26.73
2023-03-06T23:47:43.550Z,26.72
2023-03-06T23:51:43.682Z,26.73
2023-03-06T23:55:43.742Z,26.74
2023-03-06T23:59:43.902Z,26.73
